Terminal Aerodrome Forecast
Issued by NWS

Home | Current Version | Previous Version | Text Only | Print | Product List | Glossary On
Versions: 1 2 3 4 5 6 7 8 9 10 11 12 13 14 15 16 17 18 19 20
321
FTUS43 KLSX 281146
TAFUIN
TAF
KUIN 281146Z 2812/0112 18011G19KT P6SM OVC025
     FM281300 18012G19KT P6SM OVC015
     FM281900 20015G24KT P6SM OVC045
     FM010000 20012G19KT P6SM VCTS BKN050CB
     FM010300 21011G17KT 4SM SHRA VCTS BKN040CB
     FM010600 27010KT 4SM -SHRA VCTS BKN040CB
     FM010900 29013G20KT P6SM BKN015
     FM011000 29014G21KT P6SM OVC010=

USA.gov is the U.S. government's official web portal to all federal, state and local government web resources and services.